sensor_id;sensor_type;location;lat;lon;timestamp;P1;durP1;ratioP1;P2;durP2;ratioP2
20894;SDS011;10607;42.066;24.742;2022-10-15T00:02:07;9.40;;;6.78;;
20894;SDS011;10607;42.066;24.742;2022-10-15T00:04:32;10.63;;;7.20;;
20894;SDS011;10607;42.066;24.742;2022-10-15T00:06:58;11.07;;;7.18;;
20894;SDS011;10607;42.066;24.742;2022-10-15T00:09:24;10.00;;;7.20;;
20894;SDS011;10607;42.066;24.742;2022-10-15T00:11:49;13.05;;;7.18;;
20894;SDS011;10607;42.066;24.742;2022-10-15T00:14:15;11.05;;;7.80;;
20894;SDS011;10607;42.066;24.742;2022-10-15T00:16:41;12.07;;;7.53;;
20894;SDS011;10607;42.066;24.742;2022-10-15T00:19:06;11.27;;;7.40;;
20894;SDS011;10607;42.066;24.742;2022-10-15T00:21:32;12.43;;;7.03;;
20894;SDS011;10607;42.066;24.742;2022-10-15T00:23:57;9.88;;;7.80;;
20894;SDS011;10607;42.066;24.742;2022-10-15T00:26:24;11.88;;;7.30;;
20894;SDS011;10607;42.066;24.742;2022-10-15T00:28:51;10.50;;;6.95;;
20894;SDS011;10607;42.066;24.742;2022-10-15T00:31:18;13.07;;;6.70;;
20894;SDS011;10607;42.066;24.742;2022-10-15T00:33:45;9.50;;;7.22;;
20894;SDS011;10607;42.066;24.742;2022-10-15T00:36:13;9.52;;;6.93;;
20894;SDS011;10607;42.066;24.742;2022-10-15T00:38:41;9.13;;;6.65;;
20894;SDS011;10607;42.066;24.742;2022-10-15T00:41:07;11.45;;;6.50;;
20894;SDS011;10607;42.066;24.742;2022-10-15T00:46:19;9.43;;;6.43;;
20894;SDS011;10607;42.066;24.742;2022-10-15T00:48:50;14.30;;;6.88;;
20894;SDS011;10607;42.066;24.742;2022-10-15T00:51:20;9.10;;;6.72;;
20894;SDS011;10607;42.066;24.742;2022-10-15T00:53:48;10.57;;;6.47;;
20894;SDS011;10607;42.066;24.742;2022-10-15T00:56:15;10.77;;;6.15;;
20894;SDS011;10607;42.066;24.742;2022-10-15T00:58:44;11.32;;;6.78;;
20894;SDS011;10607;42.066;24.742;2022-10-15T01:01:11;9.18;;;6.47;;
20894;SDS011;10607;42.066;24.742;2022-10-15T01:03:36;15.27;;;6.20;;
20894;SDS011;10607;42.066;24.742;2022-10-15T01:06:02;9.07;;;6.10;;
20894;SDS011;10607;42.066;24.742;2022-10-15T01:08:28;12.00;;;6.13;;
20894;SDS011;10607;42.066;24.742;2022-10-15T01:16:34;6.43;;;5.10;;
20894;SDS011;10607;42.066;24.742;2022-10-15T01:19:27;7.60;;;4.85;;
20894;SDS011;10607;42.066;24.742;2022-10-15T01:32:37;7.45;;;4.85;;
20894;SDS011;10607;42.066;24.742;2022-10-15T01:41:02;7.22;;;4.13;;
20894;SDS011;10607;42.066;24.742;2022-10-15T01:43:44;8.18;;;4.05;;
20894;SDS011;10607;42.066;24.742;2022-10-15T01:46:35;7.53;;;4.72;;
20894;SDS011;10607;42.066;24.742;2022-10-15T01:49:07;14.93;;;4.85;;
20894;SDS011;10607;42.066;24.742;2022-10-15T01:51:35;9.70;;;4.68;;
20894;SDS011;10607;42.066;24.742;2022-10-15T01:54:04;9.00;;;4.28;;
20894;SDS011;10607;42.066;24.742;2022-10-15T01:56:31;7.03;;;4.70;;
20894;SDS011;10607;42.066;24.742;2022-10-15T01:59:00;9.00;;;4.47;;
20894;SDS011;10607;42.066;24.742;2022-10-15T02:01:27;7.35;;;4.30;;
20894;SDS011;10607;42.066;24.742;2022-10-15T02:03:53;8.40;;;4.93;;
20894;SDS011;10607;42.066;24.742;2022-10-15T02:11:49;10.13;;;4.47;;
20894;SDS011;10607;42.066;24.742;2022-10-15T02:14:28;8.60;;;4.55;;
20894;SDS011;10607;42.066;24.742;2022-10-15T02:17:17;9.07;;;4.70;;
20894;SDS011;10607;42.066;24.742;2022-10-15T02:19:55;12.27;;;4.57;;
20894;SDS011;10607;42.066;24.742;2022-10-15T02:22:27;8.23;;;4.45;;
20894;SDS011;10607;42.066;24.742;2022-10-15T02:25:05;10.18;;;5.13;;
20894;SDS011;10607;42.066;24.742;2022-10-15T02:27:37;11.98;;;4.65;;
20894;SDS011;10607;42.066;24.742;2022-10-15T02:30:05;6.93;;;4.40;;
20894;SDS011;10607;42.066;24.742;2022-10-15T02:32:33;12.52;;;4.82;;
20894;SDS011;10607;42.066;24.742;2022-10-15T02:35:02;7.15;;;4.40;;
20894;SDS011;10607;42.066;24.742;2022-10-15T02:37:31;8.27;;;4.63;;
20894;SDS011;10607;42.066;24.742;2022-10-15T02:39:59;9.73;;;4.28;;
20894;SDS011;10607;42.066;24.742;2022-10-15T02:42:25;11.95;;;5.05;;
20894;SDS011;10607;42.066;24.742;2022-10-15T02:44:51;6.95;;;3.72;;
20894;SDS011;10607;42.066;24.742;2022-10-15T02:47:17;8.60;;;4.50;;
20894;SDS011;10607;42.066;24.742;2022-10-15T02:49:42;7.50;;;4.32;;
20894;SDS011;10607;42.066;24.742;2022-10-15T02:52:08;6.03;;;4.65;;
20894;SDS011;10607;42.066;24.742;2022-10-15T02:54:33;5.25;;;4.70;;
20894;SDS011;10607;42.066;24.742;2022-10-15T02:56:59;8.80;;;4.80;;
20894;SDS011;10607;42.066;24.742;2022-10-15T02:59:24;8.98;;;5.18;;
20894;SDS011;10607;42.066;24.742;2022-10-15T03:01:50;9.98;;;5.07;;
20894;SDS011;10607;42.066;24.742;2022-10-15T03:04:15;10.18;;;4.85;;
20894;SDS011;10607;42.066;24.742;2022-10-15T03:06:41;16.35;;;5.53;;
20894;SDS011;10607;42.066;24.742;2022-10-15T03:09:06;6.25;;;4.93;;
20894;SDS011;10607;42.066;24.742;2022-10-15T03:11:32;6.25;;;4.90;;
20894;SDS011;10607;42.066;24.742;2022-10-15T03:13:57;8.48;;;5.10;;
20894;SDS011;10607;42.066;24.742;2022-10-15T03:16:23;5.60;;;4.32;;
20894;SDS011;10607;42.066;24.742;2022-10-15T03:18:48;7.55;;;4.95;;
20894;SDS011;10607;42.066;24.742;2022-10-15T03:21:14;7.38;;;4.60;;
20894;SDS011;10607;42.066;24.742;2022-10-15T03:23:39;6.28;;;5.13;;
20894;SDS011;10607;42.066;24.742;2022-10-15T03:26:05;8.57;;;4.95;;
20894;SDS011;10607;42.066;24.742;2022-10-15T03:28:30;8.65;;;5.35;;
20894;SDS011;10607;42.066;24.742;2022-10-15T03:30:56;8.38;;;4.45;;
20894;SDS011;10607;42.066;24.742;2022-10-15T03:33:21;8.35;;;5.03;;
20894;SDS011;10607;42.066;24.742;2022-10-15T03:35:47;9.25;;;4.88;;
20894;SDS011;10607;42.066;24.742;2022-10-15T03:38:12;5.13;;;4.32;;
20894;SDS011;10607;42.066;24.742;2022-10-15T03:40:37;6.68;;;4.63;;
20894;SDS011;10607;42.066;24.742;2022-10-15T03:43:03;7.68;;;4.43;;
20894;SDS011;10607;42.066;24.742;2022-10-15T03:45:28;7.03;;;4.10;;
20894;SDS011;10607;42.066;24.742;2022-10-15T03:47:54;11.00;;;4.55;;
20894;SDS011;10607;42.066;24.742;2022-10-15T03:50:19;7.20;;;4.22;;
20894;SDS011;10607;42.066;24.742;2022-10-15T03:52:45;6.78;;;4.20;;
20894;SDS011;10607;42.066;24.742;2022-10-15T03:55:10;8.35;;;4.72;;
20894;SDS011;10607;42.066;24.742;2022-10-15T03:57:39;4.95;;;3.97;;
20894;SDS011;10607;42.066;24.742;2022-10-15T04:00:06;6.82;;;4.50;;
20894;SDS011;10607;42.066;24.742;2022-10-15T04:02:32;6.40;;;4.10;;
20894;SDS011;10607;42.066;24.742;2022-10-15T04:04:58;7.30;;;4.25;;
20894;SDS011;10607;42.066;24.742;2022-10-15T04:07:23;8.10;;;4.78;;
20894;SDS011;10607;42.066;24.742;2022-10-15T04:09:49;10.35;;;3.75;;
20894;SDS011;10607;42.066;24.742;2022-10-15T04:12:15;5.93;;;4.13;;
20894;SDS011;10607;42.066;24.742;2022-10-15T04:14:41;6.50;;;3.83;;
20894;SDS011;10607;42.066;24.742;2022-10-15T04:17:06;7.22;;;3.80;;
20894;SDS011;10607;42.066;24.742;2022-10-15T04:19:32;7.20;;;3.95;;
20894;SDS011;10607;42.066;24.742;2022-10-15T04:21:57;7.68;;;3.90;;
20894;SDS011;10607;42.066;24.742;2022-10-15T04:24:23;10.48;;;4.35;;
20894;SDS011;10607;42.066;24.742;2022-10-15T04:26:49;6.88;;;4.18;;
20894;SDS011;10607;42.066;24.742;2022-10-15T04:29:14;8.75;;;4.38;;
20894;SDS011;10607;42.066;24.742;2022-10-15T04:31:40;7.30;;;4.03;;
20894;SDS011;10607;42.066;24.742;2022-10-15T04:34:07;6.10;;;4.30;;
20894;SDS011;10607;42.066;24.742;2022-10-15T04:36:32;5.80;;;4.13;;
20894;SDS011;10607;42.066;24.742;2022-10-15T04:38:59;6.47;;;4.40;;
20894;SDS011;10607;42.066;24.742;2022-10-15T04:41:25;10.30;;;4.35;;
20894;SDS011;10607;42.066;24.742;2022-10-15T04:43:51;10.60;;;5.30;;
20894;SDS011;10607;42.066;24.742;2022-10-15T04:46:17;7.85;;;4.90;;
20894;SDS011;10607;42.066;24.742;2022-10-15T04:48:43;7.80;;;4.00;;
20894;SDS011;10607;42.066;24.742;2022-10-15T04:51:11;10.10;;;3.72;;
20894;SDS011;10607;42.066;24.742;2022-10-15T04:53:38;8.68;;;4.28;;
20894;SDS011;10607;42.066;24.742;2022-10-15T04:56:04;12.02;;;4.05;;
20894;SDS011;10607;42.066;24.742;2022-10-15T04:58:32;4.35;;;3.75;;
20894;SDS011;10607;42.066;24.742;2022-10-15T05:01:03;7.15;;;3.83;;
20894;SDS011;10607;42.066;24.742;2022-10-15T05:03:30;10.10;;;3.58;;
20894;SDS011;10607;42.066;24.742;2022-10-15T05:05:59;10.52;;;3.83;;
20894;SDS011;10607;42.066;24.742;2022-10-15T05:08:27;6.80;;;4.05;;
20894;SDS011;10607;42.066;24.742;2022-10-15T05:10:53;8.00;;;4.25;;
20894;SDS011;10607;42.066;24.742;2022-10-15T05:13:19;10.80;;;4.15;;
20894;SDS011;10607;42.066;24.742;2022-10-15T05:15:44;5.80;;;4.00;;
20894;SDS011;10607;42.066;24.742;2022-10-15T05:18:10;7.60;;;3.50;;
20894;SDS011;10607;42.066;24.742;2022-10-15T05:20:36;6.30;;;3.40;;
20894;SDS011;10607;42.066;24.742;2022-10-15T05:23:01;8.15;;;3.90;;
20894;SDS011;10607;42.066;24.742;2022-10-15T05:25:28;7.97;;;4.15;;
20894;SDS011;10607;42.066;24.742;2022-10-15T05:27:54;8.20;;;3.72;;
20894;SDS011;10607;42.066;24.742;2022-10-15T05:30:19;4.72;;;3.53;;
20894;SDS011;10607;42.066;24.742;2022-10-15T05:32:45;8.88;;;3.83;;
20894;SDS011;10607;42.066;24.742;2022-10-15T05:35:10;9.35;;;3.50;;
20894;SDS011;10607;42.066;24.742;2022-10-15T05:37:35;6.32;;;3.30;;
20894;SDS011;10607;42.066;24.742;2022-10-15T05:40:01;7.28;;;3.42;;
20894;SDS011;10607;42.066;24.742;2022-10-15T05:42:26;6.28;;;3.70;;
20894;SDS011;10607;42.066;24.742;2022-10-15T05:44:52;8.20;;;3.55;;
20894;SDS011;10607;42.066;24.742;2022-10-15T05:47:17;5.57;;;3.10;;
20894;SDS011;10607;42.066;24.742;2022-10-15T05:49:43;7.43;;;3.50;;
20894;SDS011;10607;42.066;24.742;2022-10-15T05:52:08;7.35;;;3.50;;
20894;SDS011;10607;42.066;24.742;2022-10-15T05:54:33;11.43;;;4.10;;
20894;SDS011;10607;42.066;24.742;2022-10-15T05:56:59;7.72;;;4.40;;
20894;SDS011;10607;42.066;24.742;2022-10-15T05:59:24;8.30;;;3.63;;
20894;SDS011;10607;42.066;24.742;2022-10-15T06:01:50;6.53;;;3.70;;
20894;SDS011;10607;42.066;24.742;2022-10-15T06:04:15;7.38;;;3.22;;
20894;SDS011;10607;42.066;24.742;2022-10-15T06:06:41;12.20;;;3.92;;
20894;SDS011;10607;42.066;24.742;2022-10-15T06:09:06;8.75;;;3.70;;
20894;SDS011;10607;42.066;24.742;2022-10-15T06:11:31;7.72;;;3.20;;
20894;SDS011;10607;42.066;24.742;2022-10-15T06:13:57;5.95;;;3.25;;
20894;SDS011;10607;42.066;24.742;2022-10-15T06:16:22;16.73;;;3.38;;
20894;SDS011;10607;42.066;24.742;2022-10-15T06:18:48;4.88;;;3.05;;
20894;SDS011;10607;42.066;24.742;2022-10-15T06:21:13;6.00;;;2.67;;
20894;SDS011;10607;42.066;24.742;2022-10-15T06:23:38;8.55;;;2.90;;
20894;SDS011;10607;42.066;24.742;2022-10-15T06:26:04;5.53;;;2.60;;
20894;SDS011;10607;42.066;24.742;2022-10-15T06:28:31;4.95;;;2.90;;
20894;SDS011;10607;42.066;24.742;2022-10-15T06:30:58;8.80;;;2.88;;
20894;SDS011;10607;42.066;24.742;2022-10-15T06:33:24;5.72;;;2.80;;
20894;SDS011;10607;42.066;24.742;2022-10-15T06:35:50;3.88;;;2.42;;
20894;SDS011;10607;42.066;24.742;2022-10-15T06:38:15;8.05;;;2.10;;
20894;SDS011;10607;42.066;24.742;2022-10-15T06:40:41;5.13;;;2.42;;
20894;SDS011;10607;42.066;24.742;2022-10-15T06:43:07;6.10;;;2.83;;
20894;SDS011;10607;42.066;24.742;2022-10-15T06:45:35;4.13;;;2.40;;
20894;SDS011;10607;42.066;24.742;2022-10-15T06:48:02;6.05;;;2.50;;
20894;SDS011;10607;42.066;24.742;2022-10-15T06:50:29;6.80;;;2.65;;
20894;SDS011;10607;42.066;24.742;2022-10-15T06:52:55;6.65;;;2.85;;
20894;SDS011;10607;42.066;24.742;2022-10-15T06:55:21;8.00;;;2.97;;
20894;SDS011;10607;42.066;24.742;2022-10-15T06:57:47;3.92;;;2.60;;
20894;SDS011;10607;42.066;24.742;2022-10-15T07:00:14;5.22;;;2.63;;
20894;SDS011;10607;42.066;24.742;2022-10-15T07:02:40;4.90;;;3.03;;
20894;SDS011;10607;42.066;24.742;2022-10-15T07:05:05;7.43;;;3.13;;
20894;SDS011;10607;42.066;24.742;2022-10-15T07:07:32;6.65;;;2.65;;
20894;SDS011;10607;42.066;24.742;2022-10-15T07:09:57;6.35;;;2.80;;
20894;SDS011;10607;42.066;24.742;2022-10-15T07:12:23;9.18;;;2.97;;
20894;SDS011;10607;42.066;24.742;2022-10-15T07:14:48;4.40;;;2.88;;
20894;SDS011;10607;42.066;24.742;2022-10-15T07:17:14;7.53;;;2.83;;
20894;SDS011;10607;42.066;24.742;2022-10-15T07:19:40;7.38;;;2.97;;
20894;SDS011;10607;42.066;24.742;2022-10-15T07:22:05;7.97;;;2.63;;
20894;SDS011;10607;42.066;24.742;2022-10-15T07:24:31;7.68;;;2.80;;
20894;SDS011;10607;42.066;24.742;2022-10-15T07:26:56;7.43;;;2.80;;
20894;SDS011;10607;42.066;24.742;2022-10-15T07:29:22;7.40;;;3.25;;
20894;SDS011;10607;42.066;24.742;2022-10-15T07:31:47;4.35;;;2.70;;
20894;SDS011;10607;42.066;24.742;2022-10-15T07:34:12;4.40;;;2.63;;
20894;SDS011;10607;42.066;24.742;2022-10-15T07:36:38;8.82;;;2.85;;
20894;SDS011;10607;42.066;24.742;2022-10-15T07:39:03;5.40;;;2.58;;
20894;SDS011;10607;42.066;24.742;2022-10-15T07:41:29;10.32;;;2.72;;
20894;SDS011;10607;42.066;24.742;2022-10-15T07:43:55;5.45;;;2.75;;
20894;SDS011;10607;42.066;24.742;2022-10-15T07:46:20;5.65;;;2.70;;
20894;SDS011;10607;42.066;24.742;2022-10-15T07:48:46;7.50;;;3.17;;
20894;SDS011;10607;42.066;24.742;2022-10-15T07:51:11;8.65;;;2.80;;
20894;SDS011;10607;42.066;24.742;2022-10-15T07:53:36;6.28;;;3.38;;
20894;SDS011;10607;42.066;24.742;2022-10-15T07:56:06;5.95;;;2.35;;
20894;SDS011;10607;42.066;24.742;2022-10-15T07:58:34;6.28;;;2.90;;
20894;SDS011;10607;42.066;24.742;2022-10-15T08:01:02;5.53;;;2.80;;
20894;SDS011;10607;42.066;24.742;2022-10-15T08:03:28;6.43;;;2.40;;
20894;SDS011;10607;42.066;24.742;2022-10-15T08:05:54;6.22;;;2.38;;
20894;SDS011;10607;42.066;24.742;2022-10-15T08:08:21;6.57;;;2.53;;
20894;SDS011;10607;42.066;24.742;2022-10-15T08:10:47;5.28;;;2.22;;
20894;SDS011;10607;42.066;24.742;2022-10-15T08:13:13;3.95;;;2.20;;
20894;SDS011;10607;42.066;24.742;2022-10-15T08:15:39;4.88;;;2.60;;
20894;SDS011;10607;42.066;24.742;2022-10-15T08:18:05;4.43;;;2.20;;
20894;SDS011;10607;42.066;24.742;2022-10-15T08:20:31;7.35;;;2.88;;
20894;SDS011;10607;42.066;24.742;2022-10-15T08:22:56;4.68;;;2.35;;
20894;SDS011;10607;42.066;24.742;2022-10-15T08:25:23;3.83;;;2.22;;
20894;SDS011;10607;42.066;24.742;2022-10-15T08:27:48;4.82;;;2.10;;
20894;SDS011;10607;42.066;24.742;2022-10-15T08:30:14;9.88;;;2.10;;
20894;SDS011;10607;42.066;24.742;2022-10-15T08:32:39;6.25;;;2.25;;
20894;SDS011;10607;42.066;24.742;2022-10-15T08:35:05;10.02;;;2.50;;
20894;SDS011;10607;42.066;24.742;2022-10-15T08:37:30;5.50;;;2.10;;
20894;SDS011;10607;42.066;24.742;2022-10-15T08:39:56;5.65;;;2.25;;
20894;SDS011;10607;42.066;24.742;2022-10-15T08:42:24;7.05;;;2.22;;
20894;SDS011;10607;42.066;24.742;2022-10-15T08:45:02;7.63;;;2.03;;
20894;SDS011;10607;42.066;24.742;2022-10-15T08:47:39;3.00;;;2.20;;
20894;SDS011;10607;42.066;24.742;2022-10-15T08:52:52;4.35;;;2.35;;
20894;SDS011;10607;42.066;24.742;2022-10-15T08:55:20;4.35;;;1.70;;
20894;SDS011;10607;42.066;24.742;2022-10-15T08:58:03;9.82;;;2.63;;
20894;SDS011;10607;42.066;24.742;2022-10-15T09:00:57;5.43;;;2.38;;
20894;SDS011;10607;42.066;24.742;2022-10-15T09:06:02;8.05;;;2.40;;
20894;SDS011;10607;42.066;24.742;2022-10-15T09:11:43;6.72;;;2.30;;
20894;SDS011;10607;42.066;24.742;2022-10-15T09:14:33;6.28;;;2.30;;
20894;SDS011;10607;42.066;24.742;2022-10-15T09:17:06;5.97;;;1.90;;
20894;SDS011;10607;42.066;24.742;2022-10-15T09:19:57;7.55;;;2.72;;
20894;SDS011;10607;42.066;24.742;2022-10-15T09:22:27;5.75;;;2.00;;
20894;SDS011;10607;42.066;24.742;2022-10-15T09:24:56;3.75;;;2.10;;
20894;SDS011;10607;42.066;24.742;2022-10-15T09:30:05;5.18;;;1.92;;
20894;SDS011;10607;42.066;24.742;2022-10-15T09:32:39;11.25;;;2.50;;
20894;SDS011;10607;42.066;24.742;2022-10-15T09:35:12;5.70;;;2.88;;
20894;SDS011;10607;42.066;24.742;2022-10-15T09:37:53;5.57;;;2.28;;
20894;SDS011;10607;42.066;24.742;2022-10-15T09:43:03;5.30;;;2.13;;
20894;SDS011;10607;42.066;24.742;2022-10-15T09:45:29;4.35;;;1.75;;
20894;SDS011;10607;42.066;24.742;2022-10-15T09:47:57;7.65;;;2.35;;
20894;SDS011;10607;42.066;24.742;2022-10-15T09:50:32;9.00;;;2.00;;
20894;SDS011;10607;42.066;24.742;2022-10-15T09:56:56;4.35;;;1.50;;
20894;SDS011;10607;42.066;24.742;2022-10-15T09:59:04;4.72;;;2.10;;
20894;SDS011;10607;42.066;24.742;2022-10-15T10:01:30;2.72;;;1.60;;
20894;SDS011;10607;42.066;24.742;2022-10-15T10:04:10;7.32;;;2.00;;
20894;SDS011;10607;42.066;24.742;2022-10-15T10:06:47;7.88;;;2.35;;
20894;SDS011;10607;42.066;24.742;2022-10-15T10:09:16;6.78;;;2.20;;
20894;SDS011;10607;42.066;24.742;2022-10-15T10:11:49;5.10;;;2.03;;
20894;SDS011;10607;42.066;24.742;2022-10-15T10:14:21;4.00;;;2.20;;
20894;SDS011;10607;42.066;24.742;2022-10-15T10:17:07;5.75;;;2.20;;
20894;SDS011;10607;42.066;24.742;2022-10-15T10:19:35;4.68;;;1.88;;
20894;SDS011;10607;42.066;24.742;2022-10-15T10:22:11;8.18;;;2.20;;
20894;SDS011;10607;42.066;24.742;2022-10-15T10:24:37;4.28;;;2.05;;
20894;SDS011;10607;42.066;24.742;2022-10-15T10:27:03;3.08;;;1.58;;
20894;SDS011;10607;42.066;24.742;2022-10-15T10:30:00;7.95;;;2.25;;
20894;SDS011;10607;42.066;24.742;2022-10-15T10:32:33;10.27;;;2.20;;
20894;SDS011;10607;42.066;24.742;2022-10-15T10:35:00;3.33;;;1.80;;
20894;SDS011;10607;42.066;24.742;2022-10-15T10:37:27;2.85;;;1.58;;
20894;SDS011;10607;42.066;24.742;2022-10-15T10:39:55;4.60;;;2.03;;
20894;SDS011;10607;42.066;24.742;2022-10-15T10:42:24;5.65;;;1.90;;
20894;SDS011;10607;42.066;24.742;2022-10-15T10:45:06;5.75;;;2.33;;
20894;SDS011;10607;42.066;24.742;2022-10-15T10:47:46;6.20;;;2.72;;
20894;SDS011;10607;42.066;24.742;2022-10-15T10:50:29;7.47;;;2.40;;
20894;SDS011;10607;42.066;24.742;2022-10-15T10:52:56;3.58;;;2.33;;
20894;SDS011;10607;42.066;24.742;2022-10-15T10:55:24;4.75;;;2.30;;
20894;SDS011;10607;42.066;24.742;2022-10-15T10:58:01;2.60;;;2.17;;
20894;SDS011;10607;42.066;24.742;2022-10-15T11:02:59;3.30;;;1.98;;
20894;SDS011;10607;42.066;24.742;2022-10-15T11:05:26;6.35;;;2.22;;
20894;SDS011;10607;42.066;24.742;2022-10-15T11:10:52;6.43;;;2.13;;
20894;SDS011;10607;42.066;24.742;2022-10-15T11:13:26;2.85;;;1.83;;
20894;SDS011;10607;42.066;24.742;2022-10-15T11:16:04;5.45;;;2.15;;
20894;SDS011;10607;42.066;24.742;2022-10-15T11:18:55;2.65;;;1.85;;
20894;SDS011;10607;42.066;24.742;2022-10-15T11:24:18;7.40;;;2.40;;
20894;SDS011;10607;42.066;24.742;2022-10-15T11:30:00;4.75;;;2.13;;
20894;SDS011;10607;42.066;24.742;2022-10-15T11:46:26;6.93;;;2.00;;
20894;SDS011;10607;42.066;24.742;2022-10-15T11:49:14;6.10;;;2.63;;
20894;SDS011;10607;42.066;24.742;2022-10-15T11:57:07;5.45;;;2.17;;
20894;SDS011;10607;42.066;24.742;2022-10-15T11:59:42;5.07;;;2.42;;
20894;SDS011;10607;42.066;24.742;2022-10-15T12:02:18;3.75;;;1.98;;
20894;SDS011;10607;42.066;24.742;2022-10-15T12:04:52;4.63;;;2.00;;
20894;SDS011;10607;42.066;24.742;2022-10-15T12:07:24;5.15;;;2.53;;
20894;SDS011;10607;42.066;24.742;2022-10-15T12:12:46;5.90;;;2.38;;
20894;SDS011;10607;42.066;24.742;2022-10-15T12:20:42;5.32;;;2.95;;
20894;SDS011;10607;42.066;24.742;2022-10-15T12:23:22;7.50;;;2.20;;
20894;SDS011;10607;42.066;24.742;2022-10-15T12:26:00;3.90;;;1.92;;
20894;SDS011;10607;42.066;24.742;2022-10-15T12:28:26;3.88;;;2.22;;
20894;SDS011;10607;42.066;24.742;2022-10-15T12:31:01;3.58;;;1.95;;
20894;SDS011;10607;42.066;24.742;2022-10-15T12:33:32;5.25;;;2.13;;
20894;SDS011;10607;42.066;24.742;2022-10-15T12:36:18;7.18;;;5.55;;
20894;SDS011;10607;42.066;24.742;2022-10-15T12:38:58;7.82;;;2.20;;
20894;SDS011;10607;42.066;24.742;2022-10-15T12:41:42;6.13;;;2.25;;
20894;SDS011;10607;42.066;24.742;2022-10-15T12:46:48;7.82;;;1.83;;
20894;SDS011;10607;42.066;24.742;2022-10-15T12:51:52;4.55;;;1.73;;
20894;SDS011;10607;42.066;24.742;2022-10-15T12:54:51;2.42;;;1.85;;
20894;SDS011;10607;42.066;24.742;2022-10-15T13:00:16;5.53;;;1.90;;
20894;SDS011;10607;42.066;24.742;2022-10-15T13:02:55;5.90;;;2.42;;
20894;SDS011;10607;42.066;24.742;2022-10-15T13:05:32;6.65;;;1.90;;
20894;SDS011;10607;42.066;24.742;2022-10-15T13:08:00;4.78;;;2.13;;
20894;SDS011;10607;42.066;24.742;2022-10-15T13:10:39;7.45;;;2.83;;
20894;SDS011;10607;42.066;24.742;2022-10-15T13:13:14;2.60;;;1.67;;
20894;SDS011;10607;42.066;24.742;2022-10-15T13:15:49;8.38;;;2.63;;
20894;SDS011;10607;42.066;24.742;2022-10-15T13:18:15;5.07;;;1.77;;
20894;SDS011;10607;42.066;24.742;2022-10-15T13:20:42;5.82;;;3.38;;
20894;SDS011;10607;42.066;24.742;2022-10-15T13:23:13;7.15;;;3.72;;
20894;SDS011;10607;42.066;24.742;2022-10-15T13:25:42;6.85;;;2.38;;
20894;SDS011;10607;42.066;24.742;2022-10-15T13:30:51;2.88;;;2.00;;
20894;SDS011;10607;42.066;24.742;2022-10-15T13:33:17;10.43;;;2.15;;
20894;SDS011;10607;42.066;24.742;2022-10-15T13:35:43;3.50;;;2.22;;
20894;SDS011;10607;42.066;24.742;2022-10-15T13:38:17;3.13;;;2.03;;
20894;SDS011;10607;42.066;24.742;2022-10-15T13:40:46;6.90;;;2.17;;
20894;SDS011;10607;42.066;24.742;2022-10-15T13:43:17;7.22;;;2.45;;
20894;SDS011;10607;42.066;24.742;2022-10-15T13:45:54;8.38;;;2.30;;
20894;SDS011;10607;42.066;24.742;2022-10-15T13:48:26;4.72;;;2.17;;
20894;SDS011;10607;42.066;24.742;2022-10-15T13:50:54;6.78;;;2.28;;
20894;SDS011;10607;42.066;24.742;2022-10-15T13:55:50;5.10;;;2.30;;
20894;SDS011;10607;42.066;24.742;2022-10-15T13:58:28;4.97;;;2.10;;
20894;SDS011;10607;42.066;24.742;2022-10-15T14:03:24;8.23;;;2.30;;
20894;SDS011;10607;42.066;24.742;2022-10-15T14:05:51;4.18;;;2.10;;
20894;SDS011;10607;42.066;24.742;2022-10-15T14:08:19;5.57;;;2.22;;
20894;SDS011;10607;42.066;24.742;2022-10-15T14:10:52;5.70;;;2.30;;
20894;SDS011;10607;42.066;24.742;2022-10-15T14:13:20;9.43;;;2.13;;
20894;SDS011;10607;42.066;24.742;2022-10-15T14:15:47;4.95;;;2.03;;
20894;SDS011;10607;42.066;24.742;2022-10-15T14:18:26;10.77;;;5.40;;
20894;SDS011;10607;42.066;24.742;2022-10-15T14:21:03;7.97;;;4.55;;
20894;SDS011;10607;42.066;24.742;2022-10-15T14:23:42;9.70;;;2.85;;
20894;SDS011;10607;42.066;24.742;2022-10-15T14:26:09;9.57;;;2.88;;
20894;SDS011;10607;42.066;24.742;2022-10-15T14:28:36;7.90;;;2.55;;
20894;SDS011;10607;42.066;24.742;2022-10-15T14:31:04;7.50;;;2.20;;
20894;SDS011;10607;42.066;24.742;2022-10-15T14:38:41;4.90;;;2.50;;
20894;SDS011;10607;42.066;24.742;2022-10-15T14:41:24;6.13;;;2.55;;
20894;SDS011;10607;42.066;24.742;2022-10-15T14:44:02;7.85;;;2.28;;
20894;SDS011;10607;42.066;24.742;2022-10-15T14:46:43;9.20;;;2.60;;
20894;SDS011;10607;42.066;24.742;2022-10-15T14:49:30;4.43;;;2.28;;
20894;SDS011;10607;42.066;24.742;2022-10-15T14:51:58;5.30;;;2.50;;
20894;SDS011;10607;42.066;24.742;2022-10-15T14:54:34;7.20;;;3.00;;
20894;SDS011;10607;42.066;24.742;2022-10-15T14:57:09;29.42;;;13.88;;
20894;SDS011;10607;42.066;24.742;2022-10-15T14:59:42;14.10;;;4.82;;
20894;SDS011;10607;42.066;24.742;2022-10-15T15:02:09;11.65;;;4.30;;
20894;SDS011;10607;42.066;24.742;2022-10-15T15:04:40;11.52;;;4.65;;
20894;SDS011;10607;42.066;24.742;2022-10-15T15:07:12;11.88;;;5.53;;
20894;SDS011;10607;42.066;24.742;2022-10-15T15:09:45;12.52;;;5.40;;
20894;SDS011;10607;42.066;24.742;2022-10-15T15:12:13;10.50;;;3.80;;
20894;SDS011;10607;42.066;24.742;2022-10-15T15:14:41;9.35;;;3.58;;
20894;SDS011;10607;42.066;24.742;2022-10-15T15:17:08;10.80;;;2.83;;
20894;SDS011;10607;42.066;24.742;2022-10-15T15:19:42;6.30;;;3.05;;
20894;SDS011;10607;42.066;24.742;2022-10-15T15:22:10;8.13;;;2.90;;
20894;SDS011;10607;42.066;24.742;2022-10-15T15:24:39;8.65;;;3.15;;
20894;SDS011;10607;42.066;24.742;2022-10-15T15:27:05;6.68;;;2.72;;
20894;SDS011;10607;42.066;24.742;2022-10-15T15:29:30;5.22;;;2.80;;
20894;SDS011;10607;42.066;24.742;2022-10-15T15:31:56;5.60;;;3.47;;
20894;SDS011;10607;42.066;24.742;2022-10-15T15:34:21;6.22;;;3.80;;
20894;SDS011;10607;42.066;24.742;2022-10-15T15:36:47;6.72;;;3.22;;
20894;SDS011;10607;42.066;24.742;2022-10-15T15:39:13;3.65;;;2.80;;
20894;SDS011;10607;42.066;24.742;2022-10-15T15:41:39;6.90;;;3.00;;
20894;SDS011;10607;42.066;24.742;2022-10-15T15:44:05;5.20;;;3.03;;
20894;SDS011;10607;42.066;24.742;2022-10-15T15:46:31;7.35;;;2.65;;
20894;SDS011;10607;42.066;24.742;2022-10-15T15:48:57;3.97;;;2.58;;
20894;SDS011;10607;42.066;24.742;2022-10-15T15:51:29;9.18;;;2.80;;
20894;SDS011;10607;42.066;24.742;2022-10-15T15:53:56;8.15;;;3.05;;
20894;SDS011;10607;42.066;24.742;2022-10-15T15:56:22;5.47;;;2.75;;
20894;SDS011;10607;42.066;24.742;2022-10-15T15:58:49;4.80;;;2.97;;
20894;SDS011;10607;42.066;24.742;2022-10-15T16:01:18;10.73;;;3.13;;
20894;SDS011;10607;42.066;24.742;2022-10-15T16:03:44;3.95;;;2.47;;
20894;SDS011;10607;42.066;24.742;2022-10-15T16:06:10;5.60;;;3.35;;
20894;SDS011;10607;42.066;24.742;2022-10-15T16:08:36;8.15;;;3.47;;
20894;SDS011;10607;42.066;24.742;2022-10-15T16:11:03;9.75;;;4.57;;
20894;SDS011;10607;42.066;24.742;2022-10-15T16:13:29;12.00;;;3.70;;
20894;SDS011;10607;42.066;24.742;2022-10-15T16:15:55;17.00;;;4.10;;
20894;SDS011;10607;42.066;24.742;2022-10-15T16:18:20;10.50;;;4.07;;
20894;SDS011;10607;42.066;24.742;2022-10-15T16:20:46;8.20;;;3.88;;
20894;SDS011;10607;42.066;24.742;2022-10-15T16:23:11;8.82;;;4.00;;
20894;SDS011;10607;42.066;24.742;2022-10-15T16:25:37;11.57;;;4.55;;
20894;SDS011;10607;42.066;24.742;2022-10-15T16:28:02;16.75;;;6.05;;
20894;SDS011;10607;42.066;24.742;2022-10-15T16:30:28;9.95;;;5.57;;
20894;SDS011;10607;42.066;24.742;2022-10-15T16:32:53;12.77;;;5.13;;